sensor_id;sensor_type;location;lat;lon;timestamp;temperature;humidity
23827;DHT22;12094;50.822;4.376;2023-07-22T00:01:01;17.00;99.90
23827;DHT22;12094;50.822;4.376;2023-07-22T00:03:28;17.00;99.90
23827;DHT22;12094;50.822;4.376;2023-07-22T00:06:10;16.90;99.90
23827;DHT22;12094;50.822;4.376;2023-07-22T00:08:38;16.90;99.90
23827;DHT22;12094;50.822;4.376;2023-07-22T00:11:05;16.80;99.90
23827;DHT22;12094;50.822;4.376;2023-07-22T00:13:34;16.80;99.90
23827;DHT22;12094;50.822;4.376;2023-07-22T00:16:01;16.70;99.90
23827;DHT22;12094;50.822;4.376;2023-07-22T00:18:32;16.70;99.90
23827;DHT22;12094;50.822;4.376;2023-07-22T00:20:59;16.70;99.90
23827;DHT22;12094;50.822;4.376;2023-07-22T00:23:26;16.60;99.90
23827;DHT22;12094;50.822;4.376;2023-07-22T00:25:54;16.60;99.90
23827;DHT22;12094;50.822;4.376;2023-07-22T00:28:22;16.50;99.90
23827;DHT22;12094;50.822;4.376;2023-07-22T00:30:49;16.50;99.90
23827;DHT22;12094;50.822;4.376;2023-07-22T00:33:17;16.50;99.90
23827;DHT22;12094;50.822;4.376;2023-07-22T00:35:48;16.50;99.90
23827;DHT22;12094;50.822;4.376;2023-07-22T00:38:17;16.40;99.90
23827;DHT22;12094;50.822;4.376;2023-07-22T00:40:43;16.30;99.90
23827;DHT22;12094;50.822;4.376;2023-07-22T00:43:12;16.20;99.90
23827;DHT22;12094;50.822;4.376;2023-07-22T00:45:39;16.30;99.90
23827;DHT22;12094;50.822;4.376;2023-07-22T00:48:06;16.30;99.90
23827;DHT22;12094;50.822;4.376;2023-07-22T00:50:35;16.30;99.90
23827;DHT22;12094;50.822;4.376;2023-07-22T00:53:03;16.30;99.90
23827;DHT22;12094;50.822;4.376;2023-07-22T00:55:33;16.20;99.90
23827;DHT22;12094;50.822;4.376;2023-07-22T00:58:00;16.00;99.90
23827;DHT22;12094;50.822;4.376;2023-07-22T01:00:28;16.10;99.90
23827;DHT22;12094;50.822;4.376;2023-07-22T01:02:55;16.00;99.90
23827;DHT22;12094;50.822;4.376;2023-07-22T01:05:23;15.90;99.90
23827;DHT22;12094;50.822;4.376;2023-07-22T01:07:51;15.90;99.90
23827;DHT22;12094;50.822;4.376;2023-07-22T01:10:18;15.80;99.90
23827;DHT22;12094;50.822;4.376;2023-07-22T01:12:47;15.80;99.90
23827;DHT22;12094;50.822;4.376;2023-07-22T01:15:14;15.70;99.90
23827;DHT22;12094;50.822;4.376;2023-07-22T01:17:41;15.60;99.90
23827;DHT22;12094;50.822;4.376;2023-07-22T01:20:08;15.60;99.90
23827;DHT22;12094;50.822;4.376;2023-07-22T01:22:36;15.50;99.90
23827;DHT22;12094;50.822;4.376;2023-07-22T01:25:05;15.50;99.90
23827;DHT22;12094;50.822;4.376;2023-07-22T01:27:35;15.50;99.90
23827;DHT22;12094;50.822;4.376;2023-07-22T01:30:03;15.40;99.90
23827;DHT22;12094;50.822;4.376;2023-07-22T01:32:30;15.40;99.90
23827;DHT22;12094;50.822;4.376;2023-07-22T01:34:59;15.30;99.90
23827;DHT22;12094;50.822;4.376;2023-07-22T01:37:26;15.40;99.90
23827;DHT22;12094;50.822;4.376;2023-07-22T01:39:53;15.30;99.90
23827;DHT22;12094;50.822;4.376;2023-07-22T01:42:23;15.30;99.90
23827;DHT22;12094;50.822;4.376;2023-07-22T01:44:52;15.30;99.90
23827;DHT22;12094;50.822;4.376;2023-07-22T01:47:19;15.30;99.90
23827;DHT22;12094;50.822;4.376;2023-07-22T01:49:48;15.30;99.90
23827;DHT22;12094;50.822;4.376;2023-07-22T01:52:16;15.30;99.90
23827;DHT22;12094;50.822;4.376;2023-07-22T01:54:43;15.30;99.90
23827;DHT22;12094;50.822;4.376;2023-07-22T01:57:10;15.20;99.90
23827;DHT22;12094;50.822;4.376;2023-07-22T01:59:37;15.10;99.90
23827;DHT22;12094;50.822;4.376;2023-07-22T02:02:04;15.10;99.90
23827;DHT22;12094;50.822;4.376;2023-07-22T02:04:32;15.10;99.90
23827;DHT22;12094;50.822;4.376;2023-07-22T02:06:59;15.10;99.90
23827;DHT22;12094;50.822;4.376;2023-07-22T02:09:27;15.00;99.90
23827;DHT22;12094;50.822;4.376;2023-07-22T02:11:56;15.00;99.90
23827;DHT22;12094;50.822;4.376;2023-07-22T02:14:23;15.00;99.90
23827;DHT22;12094;50.822;4.376;2023-07-22T02:16:50;14.90;99.90
23827;DHT22;12094;50.822;4.376;2023-07-22T02:19:17;14.90;99.90
23827;DHT22;12094;50.822;4.376;2023-07-22T02:21:44;14.90;99.90
23827;DHT22;12094;50.822;4.376;2023-07-22T02:24:14;14.80;99.90
23827;DHT22;12094;50.822;4.376;2023-07-22T02:26:41;14.80;99.90
23827;DHT22;12094;50.822;4.376;2023-07-22T02:29:10;14.90;99.90
23827;DHT22;12094;50.822;4.376;2023-07-22T02:31:38;14.80;99.90
23827;DHT22;12094;50.822;4.376;2023-07-22T02:34:06;14.80;99.90
23827;DHT22;12094;50.822;4.376;2023-07-22T02:36:33;14.80;99.90
23827;DHT22;12094;50.822;4.376;2023-07-22T02:39:00;14.70;99.90
23827;DHT22;12094;50.822;4.376;2023-07-22T02:41:27;14.70;99.90
23827;DHT22;12094;50.822;4.376;2023-07-22T02:43:54;14.70;99.90
23827;DHT22;12094;50.822;4.376;2023-07-22T02:46:21;14.70;99.90
23827;DHT22;12094;50.822;4.376;2023-07-22T02:48:49;14.70;99.90
23827;DHT22;12094;50.822;4.376;2023-07-22T02:51:16;14.70;99.90
23827;DHT22;12094;50.822;4.376;2023-07-22T02:53:45;14.60;99.90
23827;DHT22;12094;50.822;4.376;2023-07-22T02:56:13;14.60;99.90
23827;DHT22;12094;50.822;4.376;2023-07-22T02:58:41;14.60;99.90
23827;DHT22;12094;50.822;4.376;2023-07-22T03:01:08;14.60;99.90
23827;DHT22;12094;50.822;4.376;2023-07-22T03:03:37;14.60;99.90
23827;DHT22;12094;50.822;4.376;2023-07-22T03:06:06;14.60;99.90
23827;DHT22;12094;50.822;4.376;2023-07-22T03:08:34;14.50;99.90
23827;DHT22;12094;50.822;4.376;2023-07-22T03:11:01;14.60;99.90
23827;DHT22;12094;50.822;4.376;2023-07-22T03:13:28;14.60;99.90
23827;DHT22;12094;50.822;4.376;2023-07-22T03:15:58;14.60;99.90
23827;DHT22;12094;50.822;4.376;2023-07-22T03:18:26;14.50;99.90
23827;DHT22;12094;50.822;4.376;2023-07-22T03:20:53;14.40;99.90
23827;DHT22;12094;50.822;4.376;2023-07-22T03:23:20;14.50;99.90
23827;DHT22;12094;50.822;4.376;2023-07-22T03:25:47;14.40;99.90
23827;DHT22;12094;50.822;4.376;2023-07-22T03:28:15;14.50;99.90
23827;DHT22;12094;50.822;4.376;2023-07-22T03:30:41;14.40;99.90
23827;DHT22;12094;50.822;4.376;2023-07-22T03:33:09;14.40;99.90
23827;DHT22;12094;50.822;4.376;2023-07-22T03:35:37;14.30;99.90
23827;DHT22;12094;50.822;4.376;2023-07-22T03:38:05;14.20;99.90
23827;DHT22;12094;50.822;4.376;2023-07-22T03:40:32;14.30;99.90
23827;DHT22;12094;50.822;4.376;2023-07-22T03:43:01;14.30;99.90
23827;DHT22;12094;50.822;4.376;2023-07-22T03:45:28;14.30;99.90
23827;DHT22;12094;50.822;4.376;2023-07-22T03:47:59;14.30;99.90
23827;DHT22;12094;50.822;4.376;2023-07-22T03:50:28;14.30;99.90
23827;DHT22;12094;50.822;4.376;2023-07-22T03:52:56;14.20;99.90
23827;DHT22;12094;50.822;4.376;2023-07-22T03:55:24;14.20;99.90
23827;DHT22;12094;50.822;4.376;2023-07-22T03:57:51;14.20;99.90
23827;DHT22;12094;50.822;4.376;2023-07-22T04:00:20;14.20;99.90
23827;DHT22;12094;50.822;4.376;2023-07-22T04:02:48;14.30;99.90
23827;DHT22;12094;50.822;4.376;2023-07-22T04:05:15;14.20;99.90
23827;DHT22;12094;50.822;4.376;2023-07-22T04:07:42;14.20;99.90
23827;DHT22;12094;50.822;4.376;2023-07-22T04:10:09;14.20;99.90
23827;DHT22;12094;50.822;4.376;2023-07-22T04:12:39;14.20;99.90
23827;DHT22;12094;50.822;4.376;2023-07-22T04:15:09;14.20;99.90
23827;DHT22;12094;50.822;4.376;2023-07-22T04:17:37;14.20;99.90
23827;DHT22;12094;50.822;4.376;2023-07-22T04:20:04;14.20;99.90
23827;DHT22;12094;50.822;4.376;2023-07-22T04:22:35;14.20;99.90
23827;DHT22;12094;50.822;4.376;2023-07-22T04:25:02;14.20;99.90
23827;DHT22;12094;50.822;4.376;2023-07-22T04:27:30;14.20;99.90
23827;DHT22;12094;50.822;4.376;2023-07-22T04:29:57;14.20;99.90
23827;DHT22;12094;50.822;4.376;2023-07-22T04:32:24;14.30;99.90
23827;DHT22;12094;50.822;4.376;2023-07-22T04:34:52;14.30;99.90
23827;DHT22;12094;50.822;4.376;2023-07-22T04:37:19;14.40;99.90
23827;DHT22;12094;50.822;4.376;2023-07-22T04:39:48;14.30;99.90
23827;DHT22;12094;50.822;4.376;2023-07-22T04:42:16;14.40;99.90
23827;DHT22;12094;50.822;4.376;2023-07-22T04:44:43;14.30;99.90
23827;DHT22;12094;50.822;4.376;2023-07-22T04:47:11;14.30;99.90
23827;DHT22;12094;50.822;4.376;2023-07-22T04:49:38;14.30;99.90
23827;DHT22;12094;50.822;4.376;2023-07-22T04:52:06;14.40;99.90
23827;DHT22;12094;50.822;4.376;2023-07-22T04:54:34;14.30;99.90
23827;DHT22;12094;50.822;4.376;2023-07-22T04:57:01;14.40;99.90
23827;DHT22;12094;50.822;4.376;2023-07-22T04:59:31;14.40;99.90
23827;DHT22;12094;50.822;4.376;2023-07-22T05:01:59;14.40;99.90
23827;DHT22;12094;50.822;4.376;2023-07-22T05:04:27;14.40;99.90
23827;DHT22;12094;50.822;4.376;2023-07-22T05:06:55;14.30;99.90
23827;DHT22;12094;50.822;4.376;2023-07-22T05:09:23;14.10;99.90
23827;DHT22;12094;50.822;4.376;2023-07-22T05:11:50;14.30;99.90
23827;DHT22;12094;50.822;4.376;2023-07-22T05:14:17;14.30;99.90
23827;DHT22;12094;50.822;4.376;2023-07-22T05:16:44;14.30;99.90
23827;DHT22;12094;50.822;4.376;2023-07-22T05:19:11;14.30;99.90
23827;DHT22;12094;50.822;4.376;2023-07-22T05:21:38;14.20;99.90
23827;DHT22;12094;50.822;4.376;2023-07-22T05:24:05;14.20;99.90
23827;DHT22;12094;50.822;4.376;2023-07-22T05:26:32;14.20;99.90
23827;DHT22;12094;50.822;4.376;2023-07-22T05:28:59;14.30;99.90
23827;DHT22;12094;50.822;4.376;2023-07-22T05:31:26;14.30;99.90
23827;DHT22;12094;50.822;4.376;2023-07-22T05:33:53;14.30;99.90
23827;DHT22;12094;50.822;4.376;2023-07-22T05:36:21;14.40;99.90
23827;DHT22;12094;50.822;4.376;2023-07-22T05:38:48;14.50;99.90
23827;DHT22;12094;50.822;4.376;2023-07-22T05:41:15;14.60;99.90
23827;DHT22;12094;50.822;4.376;2023-07-22T05:43:44;14.60;99.90
23827;DHT22;12094;50.822;4.376;2023-07-22T05:46:10;14.60;99.90
23827;DHT22;12094;50.822;4.376;2023-07-22T05:48:38;14.60;99.90
23827;DHT22;12094;50.822;4.376;2023-07-22T05:51:05;14.80;99.90
23827;DHT22;12094;50.822;4.376;2023-07-22T05:53:32;14.90;99.90
23827;DHT22;12094;50.822;4.376;2023-07-22T05:56:00;14.90;99.90
23827;DHT22;12094;50.822;4.376;2023-07-22T05:58:28;15.00;99.90
23827;DHT22;12094;50.822;4.376;2023-07-22T06:00:55;14.90;99.90
23827;DHT22;12094;50.822;4.376;2023-07-22T06:03:23;14.90;99.90
23827;DHT22;12094;50.822;4.376;2023-07-22T06:05:51;15.10;99.90
23827;DHT22;12094;50.822;4.376;2023-07-22T06:08:18;15.20;99.90
23827;DHT22;12094;50.822;4.376;2023-07-22T06:10:46;15.30;99.90
23827;DHT22;12094;50.822;4.376;2023-07-22T06:13:13;15.30;99.90
23827;DHT22;12094;50.822;4.376;2023-07-22T06:15:40;15.50;99.90
23827;DHT22;12094;50.822;4.376;2023-07-22T06:18:07;15.50;99.90
23827;DHT22;12094;50.822;4.376;2023-07-22T06:20:36;15.60;99.90
23827;DHT22;12094;50.822;4.376;2023-07-22T06:23:04;15.70;99.90
23827;DHT22;12094;50.822;4.376;2023-07-22T06:25:31;15.60;99.90
23827;DHT22;12094;50.822;4.376;2023-07-22T06:27:58;15.40;99.90
23827;DHT22;12094;50.822;4.376;2023-07-22T06:30:25;15.40;99.90
23827;DHT22;12094;50.822;4.376;2023-07-22T06:32:52;15.40;99.90
23827;DHT22;12094;50.822;4.376;2023-07-22T06:35:19;15.40;99.90
23827;DHT22;12094;50.822;4.376;2023-07-22T06:37:46;15.40;99.90
23827;DHT22;12094;50.822;4.376;2023-07-22T06:40:13;15.50;99.90
23827;DHT22;12094;50.822;4.376;2023-07-22T06:42:40;15.30;99.90
23827;DHT22;12094;50.822;4.376;2023-07-22T06:45:07;15.40;99.90
23827;DHT22;12094;50.822;4.376;2023-07-22T06:47:35;15.30;99.90
23827;DHT22;12094;50.822;4.376;2023-07-22T06:50:04;15.30;99.90
23827;DHT22;12094;50.822;4.376;2023-07-22T06:52:32;15.30;99.90
23827;DHT22;12094;50.822;4.376;2023-07-22T06:55:00;15.40;99.90
23827;DHT22;12094;50.822;4.376;2023-07-22T06:57:29;15.40;99.90
23827;DHT22;12094;50.822;4.376;2023-07-22T06:59:56;15.50;99.90
23827;DHT22;12094;50.822;4.376;2023-07-22T07:02:23;15.60;99.90
23827;DHT22;12094;50.822;4.376;2023-07-22T07:04:50;15.50;99.90
23827;DHT22;12094;50.822;4.376;2023-07-22T07:07:20;15.50;99.90
23827;DHT22;12094;50.822;4.376;2023-07-22T07:09:48;15.50;99.90
23827;DHT22;12094;50.822;4.376;2023-07-22T07:12:15;15.60;99.90
23827;DHT22;12094;50.822;4.376;2023-07-22T07:14:42;15.70;99.90
23827;DHT22;12094;50.822;4.376;2023-07-22T07:17:09;15.90;99.90
23827;DHT22;12094;50.822;4.376;2023-07-22T07:19:37;16.00;99.90
23827;DHT22;12094;50.822;4.376;2023-07-22T07:22:04;16.10;99.90
23827;DHT22;12094;50.822;4.376;2023-07-22T07:24:31;16.20;99.90
23827;DHT22;12094;50.822;4.376;2023-07-22T07:26:59;16.40;99.90
23827;DHT22;12094;50.822;4.376;2023-07-22T07:29:26;16.60;99.90
23827;DHT22;12094;50.822;4.376;2023-07-22T07:32:13;16.70;99.90
23827;DHT22;12094;50.822;4.376;2023-07-22T07:34:40;16.70;99.90
23827;DHT22;12094;50.822;4.376;2023-07-22T07:37:08;16.80;99.90
23827;DHT22;12094;50.822;4.376;2023-07-22T07:39:35;16.60;99.90
23827;DHT22;12094;50.822;4.376;2023-07-22T07:42:02;16.60;99.90
23827;DHT22;12094;50.822;4.376;2023-07-22T07:44:29;16.60;99.90
23827;DHT22;12094;50.822;4.376;2023-07-22T07:46:56;16.70;99.90
23827;DHT22;12094;50.822;4.376;2023-07-22T07:49:23;16.60;99.90
23827;DHT22;12094;50.822;4.376;2023-07-22T07:51:52;16.60;99.90
23827;DHT22;12094;50.822;4.376;2023-07-22T07:54:19;16.70;99.90
23827;DHT22;12094;50.822;4.376;2023-07-22T07:56:47;16.90;99.90
23827;DHT22;12094;50.822;4.376;2023-07-22T07:59:15;17.10;99.90
23827;DHT22;12094;50.822;4.376;2023-07-22T08:01:43;17.20;99.90
23827;DHT22;12094;50.822;4.376;2023-07-22T08:04:10;17.30;99.90
23827;DHT22;12094;50.822;4.376;2023-07-22T08:06:38;17.70;99.90
23827;DHT22;12094;50.822;4.376;2023-07-22T08:09:05;17.70;99.90
23827;DHT22;12094;50.822;4.376;2023-07-22T08:11:32;17.80;99.90
23827;DHT22;12094;50.822;4.376;2023-07-22T08:14:00;17.90;99.90
23827;DHT22;12094;50.822;4.376;2023-07-22T08:16:28;17.80;99.90
23827;DHT22;12094;50.822;4.376;2023-07-22T08:18:56;17.80;99.90
23827;DHT22;12094;50.822;4.376;2023-07-22T08:21:23;18.00;99.90
23827;DHT22;12094;50.822;4.376;2023-07-22T08:23:49;18.10;99.90
23827;DHT22;12094;50.822;4.376;2023-07-22T08:26:16;18.10;99.90
23827;DHT22;12094;50.822;4.376;2023-07-22T08:28:47;17.90;99.90
23827;DHT22;12094;50.822;4.376;2023-07-22T08:31:14;17.90;99.90
23827;DHT22;12094;50.822;4.376;2023-07-22T08:33:41;17.80;99.90
23827;DHT22;12094;50.822;4.376;2023-07-22T08:36:09;17.80;99.90
23827;DHT22;12094;50.822;4.376;2023-07-22T08:38:36;17.90;99.90
23827;DHT22;12094;50.822;4.376;2023-07-22T08:41:03;18.10;99.90
23827;DHT22;12094;50.822;4.376;2023-07-22T08:43:31;18.00;99.90
23827;DHT22;12094;50.822;4.376;2023-07-22T08:46:01;18.10;99.90
23827;DHT22;12094;50.822;4.376;2023-07-22T08:48:30;18.10;99.90
23827;DHT22;12094;50.822;4.376;2023-07-22T08:51:15;18.20;99.90
23827;DHT22;12094;50.822;4.376;2023-07-22T08:53:44;18.10;99.90
23827;DHT22;12094;50.822;4.376;2023-07-22T08:56:19;18.00;99.90
23827;DHT22;12094;50.822;4.376;2023-07-22T08:58:46;18.10;99.90
23827;DHT22;12094;50.822;4.376;2023-07-22T09:01:14;18.20;99.90
23827;DHT22;12094;50.822;4.376;2023-07-22T09:03:43;18.50;99.90
23827;DHT22;12094;50.822;4.376;2023-07-22T09:06:10;18.70;99.90
23827;DHT22;12094;50.822;4.376;2023-07-22T09:08:38;18.70;99.90
23827;DHT22;12094;50.822;4.376;2023-07-22T09:11:06;18.60;99.90
23827;DHT22;12094;50.822;4.376;2023-07-22T09:13:34;18.50;99.90
23827;DHT22;12094;50.822;4.376;2023-07-22T09:16:02;18.40;99.90
23827;DHT22;12094;50.822;4.376;2023-07-22T09:18:32;18.60;99.90
23827;DHT22;12094;50.822;4.376;2023-07-22T09:21:01;18.70;99.90
23827;DHT22;12094;50.822;4.376;2023-07-22T09:23:34;18.80;99.90
23827;DHT22;12094;50.822;4.376;2023-07-22T09:26:12;18.90;99.90
23827;DHT22;12094;50.822;4.376;2023-07-22T09:28:54;18.80;99.90
23827;DHT22;12094;50.822;4.376;2023-07-22T09:31:23;18.80;99.90
23827;DHT22;12094;50.822;4.376;2023-07-22T09:33:50;18.80;99.90
23827;DHT22;12094;50.822;4.376;2023-07-22T09:36:18;18.90;99.90
23827;DHT22;12094;50.822;4.376;2023-07-22T09:38:45;19.00;99.90
23827;DHT22;12094;50.822;4.376;2023-07-22T09:41:12;19.20;99.90
23827;DHT22;12094;50.822;4.376;2023-07-22T09:43:40;19.20;99.90
23827;DHT22;12094;50.822;4.376;2023-07-22T09:46:08;19.20;99.90
23827;DHT22;12094;50.822;4.376;2023-07-22T09:48:56;19.40;99.90
23827;DHT22;12094;50.822;4.376;2023-07-22T09:51:23;19.30;99.90
23827;DHT22;12094;50.822;4.376;2023-07-22T09:54:00;19.30;99.90
23827;DHT22;12094;50.822;4.376;2023-07-22T09:56:28;19.40;99.90
23827;DHT22;12094;50.822;4.376;2023-07-22T09:58:58;19.50;99.90
23827;DHT22;12094;50.822;4.376;2023-07-22T10:01:26;19.60;99.90
23827;DHT22;12094;50.822;4.376;2023-07-22T10:03:55;19.80;99.90
23827;DHT22;12094;50.822;4.376;2023-07-22T10:06:27;19.90;99.90
23827;DHT22;12094;50.822;4.376;2023-07-22T10:08:56;19.90;99.90
23827;DHT22;12094;50.822;4.376;2023-07-22T10:11:25;19.80;99.90
23827;DHT22;12094;50.822;4.376;2023-07-22T10:13:55;20.00;99.90
23827;DHT22;12094;50.822;4.376;2023-07-22T10:16:23;20.10;99.90
23827;DHT22;12094;50.822;4.376;2023-07-22T10:18:51;20.00;99.90
23827;DHT22;12094;50.822;4.376;2023-07-22T10:21:18;20.10;99.90
23827;DHT22;12094;50.822;4.376;2023-07-22T10:23:47;20.20;99.90
23827;DHT22;12094;50.822;4.376;2023-07-22T10:26:19;20.30;99.90
23827;DHT22;12094;50.822;4.376;2023-07-22T10:29:07;20.60;99.90
23827;DHT22;12094;50.822;4.376;2023-07-22T10:31:35;20.90;99.90
23827;DHT22;12094;50.822;4.376;2023-07-22T10:34:03;20.90;99.90
23827;DHT22;12094;50.822;4.376;2023-07-22T10:36:31;20.70;99.90
23827;DHT22;12094;50.822;4.376;2023-07-22T10:38:59;20.60;99.90
23827;DHT22;12094;50.822;4.376;2023-07-22T10:41:30;20.80;99.90
23827;DHT22;12094;50.822;4.376;2023-07-22T10:43:58;21.10;99.90
23827;DHT22;12094;50.822;4.376;2023-07-22T10:46:37;21.40;99.90
23827;DHT22;12094;50.822;4.376;2023-07-22T10:51:39;21.70;99.90
23827;DHT22;12094;50.822;4.376;2023-07-22T10:54:14;21.30;99.90
23827;DHT22;12094;50.822;4.376;2023-07-22T10:56:43;21.30;99.90
23827;DHT22;12094;50.822;4.376;2023-07-22T10:59:11;21.60;99.90
23827;DHT22;12094;50.822;4.376;2023-07-22T11:01:41;21.60;99.90
23827;DHT22;12094;50.822;4.376;2023-07-22T11:09:40;20.90;99.90
23827;DHT22;12094;50.822;4.376;2023-07-22T11:12:13;20.90;99.90
23827;DHT22;12094;50.822;4.376;2023-07-22T11:14:54;21.20;99.90
23827;DHT22;12094;50.822;4.376;2023-07-22T11:17:29;20.90;99.90
23827;DHT22;12094;50.822;4.376;2023-07-22T11:20:01;21.10;99.90
23827;DHT22;12094;50.822;4.376;2023-07-22T11:22:28;21.60;99.90
23827;DHT22;12094;50.822;4.376;2023-07-22T11:24:56;21.80;99.90
23827;DHT22;12094;50.822;4.376;2023-07-22T11:27:25;21.80;99.90
23827;DHT22;12094;50.822;4.376;2023-07-22T11:29:52;21.50;99.90
23827;DHT22;12094;50.822;4.376;2023-07-22T11:32:20;21.60;99.90
23827;DHT22;12094;50.822;4.376;2023-07-22T11:34:51;21.90;99.90
23827;DHT22;12094;50.822;4.376;2023-07-22T11:37:21;21.80;99.90
23827;DHT22;12094;50.822;4.376;2023-07-22T11:39:49;21.60;99.90
23827;DHT22;12094;50.822;4.376;2023-07-22T11:42:17;21.80;99.90
23827;DHT22;12094;50.822;4.376;2023-07-22T11:44:44;21.90;99.90
23827;DHT22;12094;50.822;4.376;2023-07-22T11:47:11;21.70;99.90
23827;DHT22;12094;50.822;4.376;2023-07-22T11:49:41;21.70;99.90
23827;DHT22;12094;50.822;4.376;2023-07-22T11:52:11;21.90;99.90
23827;DHT22;12094;50.822;4.376;2023-07-22T11:54:43;22.10;99.90
23827;DHT22;12094;50.822;4.376;2023-07-22T11:57:17;22.10;99.90
23827;DHT22;12094;50.822;4.376;2023-07-22T11:59:46;22.20;99.90
23827;DHT22;12094;50.822;4.376;2023-07-22T12:02:25;22.50;99.90
23827;DHT22;12094;50.822;4.376;2023-07-22T12:04:54;22.80;99.90
23827;DHT22;12094;50.822;4.376;2023-07-22T12:07:23;22.70;99.90
23827;DHT22;12094;50.822;4.376;2023-07-22T12:09:51;23.00;99.90
23827;DHT22;12094;50.822;4.376;2023-07-22T12:12:18;22.80;99.90
23827;DHT22;12094;50.822;4.376;2023-07-22T12:14:45;22.90;99.90
23827;DHT22;12094;50.822;4.376;2023-07-22T12:17:12;23.20;99.90
23827;DHT22;12094;50.822;4.376;2023-07-22T12:19:51;23.40;99.90
23827;DHT22;12094;50.822;4.376;2023-07-22T12:22:18;23.10;99.90
23827;DHT22;12094;50.822;4.376;2023-07-22T12:24:47;23.20;99.90
23827;DHT22;12094;50.822;4.376;2023-07-22T12:27:15;23.50;99.90
23827;DHT22;12094;50.822;4.376;2023-07-22T12:29:42;23.50;99.90
23827;DHT22;12094;50.822;4.376;2023-07-22T12:32:11;23.40;99.90
23827;DHT22;12094;50.822;4.376;2023-07-22T12:34:38;23.50;99.90
23827;DHT22;12094;50.822;4.376;2023-07-22T12:37:05;23.50;99.90
23827;DHT22;12094;50.822;4.376;2023-07-22T12:39:35;24.00;99.00
23827;DHT22;12094;50.822;4.376;2023-07-22T12:45:24;24.70;95.90
23827;DHT22;12094;50.822;4.376;2023-07-22T12:47:51;24.40;96.50
23827;DHT22;12094;50.822;4.376;2023-07-22T12:50:19;24.20;96.50
23827;DHT22;12094;50.822;4.376;2023-07-22T12:52:46;23.80;97.20
23827;DHT22;12094;50.822;4.376;2023-07-22T12:55:14;24.20;96.40
23827;DHT22;12094;50.822;4.376;2023-07-22T12:57:42;24.20;95.80
23827;DHT22;12094;50.822;4.376;2023-07-22T13:00:09;24.10;96.10
23827;DHT22;12094;50.822;4.376;2023-07-22T13:02:39;24.60;96.00
23827;DHT22;12094;50.822;4.376;2023-07-22T13:05:07;24.60;95.30
23827;DHT22;12094;50.822;4.376;2023-07-22T13:07:35;24.40;95.20
23827;DHT22;12094;50.822;4.376;2023-07-22T13:10:02;23.90;95.60
23827;DHT22;12094;50.822;4.376;2023-07-22T13:12:33;23.60;96.20
23827;DHT22;12094;50.822;4.376;2023-07-22T13:15:01;23.60;96.50
23827;DHT22;12094;50.822;4.376;2023-07-22T13:17:28;23.80;96.20
23827;DHT22;12094;50.822;4.376;2023-07-22T13:19:55;23.10;96.80
23827;DHT22;12094;50.822;4.376;2023-07-22T13:22:22;22.70;97.70
23827;DHT22;12094;50.822;4.376;2023-07-22T13:24:50;22.30;98.70
23827;DHT22;12094;50.822;4.376;2023-07-22T13:27:18;22.30;99.30
23827;DHT22;12094;50.822;4.376;2023-07-22T13:29:45;22.40;98.90
23827;DHT22;12094;50.822;4.376;2023-07-22T13:32:12;22.70;99.00
23827;DHT22;12094;50.822;4.376;2023-07-22T13:34:39;23.10;98.60
23827;DHT22;12094;50.822;4.376;2023-07-22T13:37:06;23.30;98.20
23827;DHT22;12094;50.822;4.376;2023-07-22T13:39:34;23.20;98.10
23827;DHT22;12094;50.822;4.376;2023-07-22T13:42:01;23.00;98.60
23827;DHT22;12094;50.822;4.376;2023-07-22T13:44:30;23.00;98.90
23827;DHT22;12094;50.822;4.376;2023-07-22T13:46:59;23.00;98.50
23827;DHT22;12094;50.822;4.376;2023-07-22T13:49:27;22.90;98.30
23827;DHT22;12094;50.822;4.376;2023-07-22T13:51:55;22.90;98.70
23827;DHT22;12094;50.822;4.376;2023-07-22T13:54:22;22.60;99.30
23827;DHT22;12094;50.822;4.376;2023-07-22T13:56:49;22.20;99.90
23827;DHT22;12094;50.822;4.376;2023-07-22T13:59:17;22.30;99.90
23827;DHT22;12094;50.822;4.376;2023-07-22T14:01:45;22.40;99.90
23827;DHT22;12094;50.822;4.376;2023-07-22T14:04:12;22.50;99.90
23827;DHT22;12094;50.822;4.376;2023-07-22T14:06:39;22.10;99.90
23827;DHT22;12094;50.822;4.376;2023-07-22T14:09:06;22.00;99.90
23827;DHT22;12094;50.822;4.376;2023-07-22T14:11:32;21.60;99.90
23827;DHT22;12094;50.822;4.376;2023-07-22T14:14:01;21.40;99.90
23827;DHT22;12094;50.822;4.376;2023-07-22T14:16:29;21.40;99.90
23827;DHT22;12094;50.822;4.376;2023-07-22T14:18:56;21.40;99.90
23827;DHT22;12094;50.822;4.376;2023-07-22T14:21:23;21.50;99.90
23827;DHT22;12094;50.822;4.376;2023-07-22T14:23:51;21.30;99.90
23827;DHT22;12094;50.822;4.376;2023-07-22T14:26:18;21.20;99.90
23827;DHT22;12094;50.822;4.376;2023-07-22T14:28:47;21.10;99.90
23827;DHT22;12094;50.822;4.376;2023-07-22T14:31:14;21.30;99.90
23827;DHT22;12094;50.822;4.376;2023-07-22T14:33:41;21.70;99.90
23827;DHT22;12094;50.822;4.376;2023-07-22T14:36:08;21.90;99.90
23827;DHT22;12094;50.822;4.376;2023-07-22T14:38:35;21.90;99.90
23827;DHT22;12094;50.822;4.376;2023-07-22T14:41:02;22.10;99.90
23827;DHT22;12094;50.822;4.376;2023-07-22T14:43:29;22.20;99.90
23827;DHT22;12094;50.822;4.376;2023-07-22T14:45:56;22.20;99.90
23827;DHT22;12094;50.822;4.376;2023-07-22T14:48:24;21.90;99.90
23827;DHT22;12094;50.822;4.376;2023-07-22T14:50:52;22.00;99.90
23827;DHT22;12094;50.822;4.376;2023-07-22T14:53:19;22.10;99.90
23827;DHT22;12094;50.822;4.376;2023-07-22T14:55:46;22.80;99.90
23827;DHT22;12094;50.822;4.376;2023-07-22T14:58:13;23.40;99.90
23827;DHT22;12094;50.822;4.376;2023-07-22T15:00:39;23.50;99.90
23827;DHT22;12094;50.822;4.376;2023-07-22T15:03:09;23.40;99.90
23827;DHT22;12094;50.822;4.376;2023-07-22T15:05:37;23.30;99.90
23827;DHT22;12094;50.822;4.376;2023-07-22T15:08:04;22.60;99.90
23827;DHT22;12094;50.822;4.376;2023-07-22T15:10:30;22.40;99.90
23827;DHT22;12094;50.822;4.376;2023-07-22T15:12:57;22.70;99.90
23827;DHT22;12094;50.822;4.376;2023-07-22T15:15:24;22.90;99.90
23827;DHT22;12094;50.822;4.376;2023-07-22T15:17:51;22.90;99.90
23827;DHT22;12094;50.822;4.376;2023-07-22T15:20:19;22.50;99.90
23827;DHT22;12094;50.822;4.376;2023-07-22T15:22:46;22.40;99.90
23827;DHT22;12094;50.822;4.376;2023-07-22T15:25:14;22.50;99.90
23827;DHT22;12094;50.822;4.376;2023-07-22T15:27:42;22.50;99.90
23827;DHT22;12094;50.822;4.376;2023-07-22T15:30:10;22.70;99.90
23827;DHT22;12094;50.822;4.376;2023-07-22T15:32:38;22.80;99.90
23827;DHT22;12094;50.822;4.376;2023-07-22T15:35:05;22.60;99.90
23827;DHT22;12094;50.822;4.376;2023-07-22T15:37:33;22.60;99.90
23827;DHT22;12094;50.822;4.376;2023-07-22T15:40:01;22.50;99.90
23827;DHT22;12094;50.822;4.376;2023-07-22T15:42:28;22.50;99.90
23827;DHT22;12094;50.822;4.376;2023-07-22T15:44:55;22.40;99.90
23827;DHT22;12094;50.822;4.376;2023-07-22T15:47:22;22.30;99.90